Time;durP1;ratioP1;P1;durP2;ratioP2;P2;SDS_P1;SDS_P2;PMS_P1;PMS_P2;Temp;Humidity;BMP_temperature;BMP_pressure;BME280_temperature;BME280_humidity;BME280_pressure;Samples;Min_cycle;Max_cycle;Signal;HPM_P1;HPM_P2
2021/07/09 00:00:58;;;;;;;69.15;63.72;;;11.10;99.90;;;;;;5033425;28;20060;-58
2021/07/09 00:03:26;;;;;;;66.47;61.38;;;11.20;99.90;;;;;;5033455;28;20033;-58
2021/07/09 00:05:53;;;;;;;63.72;58.60;;;11.20;99.90;;;;;;5033349;28;20637;-59
2021/07/09 00:08:20;;;;;;;62.92;57.88;;;11.30;99.90;;;;;;5033295;28;20104;-58
2021/07/09 00:10:48;;;;;;;64.53;59.20;;;11.40;99.90;;;;;;5033152;28;20029;-58
2021/07/09 00:13:15;;;;;;;64.15;59.13;;;11.50;99.90;;;;;;5033241;28;20031;-57
2021/07/09 00:15:42;;;;;;;63.30;58.50;;;11.50;99.90;;;;;;5033284;28;20021;-58
2021/07/09 00:18:10;;;;;;;63.42;58.60;;;11.60;99.90;;;;;;5033289;28;20054;-58
2021/07/09 00:20:37;;;;;;;62.08;57.50;;;11.60;99.90;;;;;;5033278;28;20037;-60
2021/07/09 00:23:05;;;;;;;62.90;58.00;;;11.40;99.90;;;;;;5033107;28;20049;-57
2021/07/09 00:25:32;;;;;;;61.08;56.45;;;11.40;99.90;;;;;;5033461;28;20457;-59
2021/07/09 00:27:59;;;;;;;63.95;59.08;;;11.60;99.90;;;;;;5033180;28;20018;-57
2021/07/09 00:30:27;;;;;;;63.35;58.67;;;11.70;99.90;;;;;;5032962;28;20026;-59
2021/07/09 00:32:54;;;;;;;60.70;56.13;;;11.70;99.90;;;;;;5033108;28;20601;-56
2021/07/09 00:35:21;;;;;;;61.20;56.63;;;11.80;99.90;;;;;;5033260;28;20017;-58
2021/07/09 00:37:49;;;;;;;62.92;58.10;;;11.80;99.90;;;;;;5031796;28;20071;-57
2021/07/09 00:40:17;;;;;;;63.30;58.42;;;11.80;99.90;;;;;;5033116;28;20022;-59
2021/07/09 00:42:44;;;;;;;55.78;51.13;;;11.80;99.90;;;;;;5033030;28;20030;-59
2021/07/09 00:45:13;;;;;;;56.95;52.38;;;11.80;99.90;;;;;;5032792;28;20493;-58
2021/07/09 00:47:44;;;;;;;55.47;50.83;;;11.80;99.90;;;;;;5033127;28;20072;-59
2021/07/09 00:50:13;;;;;;;56.22;51.67;;;11.70;99.90;;;;;;5033039;28;20032;-58
2021/07/09 00:52:40;;;;;;;56.88;52.47;;;11.70;99.90;;;;;;5032732;28;20026;-58
2021/07/09 00:55:09;;;;;;;57.78;53.72;;;11.70;99.90;;;;;;5032819;28;20036;-59
2021/07/09 00:57:42;;;;;;;57.25;53.05;;;11.80;99.90;;;;;;5032718;28;20022;-58
2021/07/09 01:00:12;;;;;;;58.17;53.92;;;11.80;99.90;;;;;;5032842;28;20563;-57
2021/07/09 01:02:40;;;;;;;55.40;51.65;;;11.90;99.90;;;;;;5032814;28;20112;-57
2021/07/09 01:05:10;;;;;;;60.90;56.38;;;11.80;99.90;;;;;;5032594;28;20045;-58
2021/07/09 01:07:37;;;;;;;55.38;51.38;;;12.00;99.90;;;;;;5032816;28;20108;-58
2021/07/09 01:10:12;;;;;;;50.75;47.05;;;12.00;99.90;;;;;;5035067;28;20486;-58
2021/07/09 01:12:40;;;;;;;53.03;49.22;;;12.00;99.90;;;;;;5036491;28;20021;-58
2021/07/09 01:15:10;;;;;;;54.10;50.22;;;12.00;99.90;;;;;;5036611;28;20528;-57
2021/07/09 01:17:39;;;;;;;54.42;50.58;;;12.00;99.90;;;;;;5037344;28;20018;-60
2021/07/09 01:20:09;;;;;;;56.65;52.53;;;12.10;99.90;;;;;;5037183;28;20048;-58
2021/07/09 01:22:39;;;;;;;59.00;54.50;;;12.10;99.90;;;;;;5037787;28;20045;-58
2021/07/09 01:25:10;;;;;;;59.17;54.88;;;12.10;99.90;;;;;;5036902;28;20037;-58
2021/07/09 01:27:38;;;;;;;60.38;55.55;;;12.00;99.90;;;;;;5035597;28;20029;-60
2021/07/09 01:30:10;;;;;;;58.80;54.30;;;12.00;99.90;;;;;;5035449;28;20033;-61
2021/07/09 01:32:38;;;;;;;58.97;54.38;;;11.90;99.90;;;;;;5035254;28;20036;-59
2021/07/09 01:35:07;;;;;;;61.10;55.67;;;11.80;99.90;;;;;;5036449;28;20076;-57
2021/07/09 01:37:34;;;;;;;60.85;56.38;;;11.80;99.90;;;;;;5036073;28;20498;-55
2021/07/09 01:40:04;;;;;;;63.00;58.22;;;11.80;99.90;;;;;;5034664;28;20052;-57
2021/07/09 01:42:31;;;;;;;65.32;60.65;;;11.80;99.90;;;;;;5036173;28;20034;-57
2021/07/09 01:44:59;;;;;;;62.67;57.75;;;11.80;99.90;;;;;;5036141;28;20031;-57
2021/07/09 01:47:26;;;;;;;63.00;58.10;;;11.70;99.90;;;;;;5035993;28;20021;-57
2021/07/09 01:50:00;;;;;;;61.10;56.15;;;11.70;99.90;;;;;;5034635;28;20078;-57
2021/07/09 01:52:28;;;;;;;60.95;56.25;;;11.70;99.90;;;;;;5035868;28;20022;-56
2021/07/09 01:54:59;;;;;;;60.47;55.67;;;11.80;99.90;;;;;;5035904;28;20032;-57
2021/07/09 01:57:28;;;;;;;64.32;59.15;;;11.70;99.90;;;;;;5035765;28;20398;-57
2021/07/09 01:59:56;;;;;;;61.97;56.78;;;11.80;99.90;;;;;;5035819;28;20057;-57
2021/07/09 02:02:24;;;;;;;59.97;55.13;;;11.90;99.90;;;;;;5035758;28;20159;-58
2021/07/09 02:04:55;;;;;;;61.40;56.53;;;11.90;99.90;;;;;;5035560;28;20053;-59
2021/07/09 02:07:26;;;;;;;62.85;57.42;;;12.00;99.90;;;;;;5035842;28;20026;-58
2021/07/09 02:09:58;;;;;;;65.97;60.28;;;11.90;99.90;;;;;;5035653;28;20029;-59
2021/07/09 02:12:27;;;;;;;68.00;62.35;;;11.90;99.90;;;;;;5035513;28;20517;-58
2021/07/09 02:14:55;;;;;;;64.32;59.10;;;11.80;99.90;;;;;;5035519;28;20015;-59
2021/07/09 02:17:24;;;;;;;67.05;61.38;;;11.80;99.90;;;;;;5035630;28;20021;-59
2021/07/09 02:19:53;;;;;;;67.63;61.85;;;11.90;99.90;;;;;;5035294;28;20026;-59
2021/07/09 02:22:22;;;;;;;69.20;63.50;;;11.90;99.90;;;;;;5034223;28;20068;-60
2021/07/09 02:24:50;;;;;;;66.68;61.17;;;11.90;99.90;;;;;;5034016;28;20105;-59
2021/07/09 02:27:18;;;;;;;63.95;58.67;;;12.00;99.90;;;;;;5035221;28;20040;-59
2021/07/09 02:29:45;;;;;;;64.80;59.40;;;12.10;99.90;;;;;;5035181;28;20025;-59
2021/07/09 02:32:14;;;;;;;64.18;58.90;;;12.00;99.90;;;;;;5035034;28;20371;-59
2021/07/09 02:34:42;;;;;;;59.83;55.22;;;12.10;99.90;;;;;;5035001;28;20021;-60
2021/07/09 02:37:11;;;;;;;62.05;57.17;;;12.10;99.90;;;;;;5035032;28;20033;-59
2021/07/09 02:39:40;;;;;;;61.95;57.03;;;12.10;99.90;;;;;;5035253;28;20037;-60
2021/07/09 02:42:08;;;;;;;60.35;55.47;;;12.20;99.90;;;;;;5034883;28;20033;-62
2021/07/09 02:44:36;;;;;;;59.88;55.50;;;12.30;99.90;;;;;;5034815;28;20072;-59
2021/07/09 02:47:04;;;;;;;58.55;53.97;;;12.40;99.90;;;;;;5034655;28;20029;-60
2021/07/09 02:49:32;;;;;;;57.55;52.95;;;12.50;99.90;;;;;;5034817;28;20021;-60
2021/07/09 02:51:59;;;;;;;62.33;57.45;;;12.50;99.90;;;;;;5034606;28;20029;-59
2021/07/09 02:54:27;;;;;;;56.58;52.13;;;12.50;99.90;;;;;;5034671;28;20084;-60
2021/07/09 02:56:54;;;;;;;56.58;51.85;;;12.50;99.90;;;;;;5034839;28;20406;-59
2021/07/09 02:59:22;;;;;;;57.30;52.58;;;12.50;99.90;;;;;;5034598;28;20378;-60
2021/07/09 03:01:49;;;;;;;60.15;55.58;;;12.60;99.90;;;;;;5034452;28;20022;-60
2021/07/09 03:04:16;;;;;;;60.80;56.00;;;12.60;99.90;;;;;;5034318;28;20052;-59
2021/07/09 03:06:44;;;;;;;58.92;54.33;;;12.60;99.90;;;;;;5034533;28;20487;-59
2021/07/09 03:09:12;;;;;;;61.08;56.35;;;12.50;99.90;;;;;;5034456;28;20413;-59
2021/07/09 03:11:40;;;;;;;63.17;58.38;;;12.50;99.90;;;;;;5034859;28;20036;-59
2021/07/09 03:14:09;;;;;;;62.17;57.25;;;12.60;99.90;;;;;;5034503;28;20072;-59
2021/07/09 03:16:37;;;;;;;64.57;59.45;;;12.50;99.90;;;;;;5034425;28;20032;-59
2021/07/09 03:19:07;;;;;;;65.32;60.03;;;12.60;99.90;;;;;;5034094;28;20021;-60
2021/07/09 03:21:36;;;;;;;72.28;66.88;;;12.50;99.90;;;;;;5034034;28;20026;-60
2021/07/09 03:24:04;;;;;;;70.30;64.90;;;12.60;99.90;;;;;;5032717;28;20036;-60
2021/07/09 03:26:32;;;;;;;73.85;68.25;;;12.50;99.90;;;;;;5033995;28;20025;-59
2021/07/09 03:28:59;;;;;;;74.55;68.85;;;12.50;99.90;;;;;;5033962;28;20036;-60
2021/07/09 03:31:31;;;;;;;72.03;66.45;;;12.40;99.90;;;;;;5032636;28;20117;-59
2021/07/09 03:33:59;;;;;;;69.85;64.45;;;12.20;99.90;;;;;;5033756;28;20071;-59
2021/07/09 03:36:28;;;;;;;70.45;64.75;;;12.30;99.90;;;;;;5033781;28;20017;-59
2021/07/09 03:38:57;;;;;;;76.30;69.78;;;12.10;99.90;;;;;;5033768;28;20550;-59
2021/07/09 03:41:25;;;;;;;75.65;69.85;;;12.10;99.90;;;;;;5033908;28;20021;-60
2021/07/09 03:43:53;;;;;;;77.80;71.82;;;12.10;99.90;;;;;;5033682;28;20041;-60
2021/07/09 03:46:21;;;;;;;77.28;70.95;;;12.00;99.90;;;;;;5033979;28;20026;-60
2021/07/09 03:48:49;;;;;;;77.53;71.30;;;12.00;99.90;;;;;;5033677;28;20378;-60
2021/07/09 03:51:16;;;;;;;81.10;74.07;;;12.00;99.90;;;;;;5033651;28;20017;-60
2021/07/09 03:53:43;;;;;;;81.13;74.65;;;12.00;99.90;;;;;;5033686;28;20480;-60
2021/07/09 03:56:11;;;;;;;81.35;74.75;;;12.00;99.90;;;;;;5033462;28;20100;-58
2021/07/09 03:58:38;;;;;;;74.88;67.90;;;12.00;99.90;;;;;;5033582;28;20048;-60
2021/07/09 04:01:06;;;;;;;75.38;68.97;;;11.90;99.90;;;;;;5033499;28;20029;-61
2021/07/09 04:03:33;;;;;;;72.55;66.22;;;11.90;99.90;;;;;;5032232;28;20022;-60
2021/07/09 04:06:01;;;;;;;76.90;70.10;;;11.80;99.90;;;;;;5032055;28;20171;-59
2021/07/09 04:08:28;;;;;;;77.97;71.47;;;11.80;99.90;;;;;;5033433;28;20486;-59
2021/07/09 04:10:55;;;;;;;77.45;70.78;;;11.90;99.90;;;;;;5033419;28;20047;-59
2021/07/09 04:13:23;;;;;;;77.38;70.75;;;11.90;99.90;;;;;;5033459;28;20022;-59
2021/07/09 04:15:50;;;;;;;75.90;69.13;;;11.90;99.90;;;;;;5033433;28;20067;-60
2021/07/09 04:18:17;;;;;;;73.70;67.18;;;12.00;99.90;;;;;;5033328;28;20022;-60
2021/07/09 04:20:45;;;;;;;70.07;63.67;;;12.00;99.90;;;;;;5033596;28;20415;-61
2021/07/09 04:23:12;;;;;;;77.30;70.55;;;12.00;99.90;;;;;;5033246;28;20021;-60
2021/07/09 04:25:39;;;;;;;81.32;74.43;;;12.00;99.90;;;;;;5033122;28;20441;-60
2021/07/09 04:28:07;;;;;;;74.68;68.50;;;12.00;99.90;;;;;;5033099;28;20025;-61
2021/07/09 04:30:34;;;;;;;73.93;67.35;;;12.10;99.90;;;;;;5033056;28;20025;-60
2021/07/09 04:33:02;;;;;;;78.03;71.57;;;12.10;99.90;;;;;;5032950;28;20033;-60
2021/07/09 04:35:29;;;;;;;79.60;73.20;;;12.10;99.90;;;;;;5032971;28;20021;-60
2021/07/09 04:37:56;;;;;;;74.00;67.88;;;12.10;99.90;;;;;;5033049;28;20036;-60
2021/07/09 04:40:24;;;;;;;75.57;68.97;;;12.20;99.90;;;;;;5031690;28;20028;-60
2021/07/09 04:42:51;;;;;;;76.55;70.18;;;12.20;99.90;;;;;;5033013;28;20022;-60
2021/07/09 04:45:18;;;;;;;71.55;65.63;;;12.20;99.90;;;;;;5035777;28;20029;-60
2021/07/09 04:47:46;;;;;;;74.90;68.25;;;12.20;99.90;;;;;;5035828;28;20033;-60
2021/07/09 04:50:13;;;;;;;78.68;72.05;;;12.20;99.90;;;;;;5037151;28;20021;-60
2021/07/09 04:52:41;;;;;;;79.57;72.95;;;12.10;99.90;;;;;;5037028;28;20492;-60
2021/07/09 04:55:08;;;;;;;71.60;65.30;;;12.10;99.90;;;;;;5035709;28;20035;-60
2021/07/09 04:57:35;;;;;;;78.07;71.00;;;12.10;99.90;;;;;;5036875;28;20022;-61
2021/07/09 05:00:05;;;;;;;78.40;71.80;;;12.00;99.90;;;;;;5037466;28;20494;-65
2021/07/09 05:02:32;;;;;;;81.70;74.80;;;12.10;99.90;;;;;;5036660;28;20109;-60
2021/07/09 05:04:59;;;;;;;77.75;70.50;;;12.10;99.90;;;;;;5036743;28;20049;-59
2021/07/09 05:07:27;;;;;;;82.82;75.72;;;12.10;99.90;;;;;;5036732;28;20072;-59
2021/07/09 05:09:54;;;;;;;80.78;73.43;;;12.10;99.90;;;;;;5036617;28;20413;-59
2021/07/09 05:12:21;;;;;;;86.93;79.38;;;12.10;99.90;;;;;;5036676;28;20030;-60
2021/07/09 05:14:49;;;;;;;87.65;80.35;;;12.00;99.90;;;;;;5035532;28;20025;-59
2021/07/09 05:17:16;;;;;;;84.45;77.35;;;12.00;99.90;;;;;;5036704;28;20021;-59
2021/07/09 05:19:44;;;;;;;87.47;79.80;;;11.90;99.90;;;;;;5036575;28;20112;-60
2021/07/09 05:22:11;;;;;;;88.07;80.43;;;11.80;99.90;;;;;;5036585;28;20022;-57
2021/07/09 05:24:39;;;;;;;88.32;80.57;;;11.90;99.90;;;;;;5036409;28;20030;-59
2021/07/09 05:27:09;;;;;;;92.57;84.50;;;11.90;99.90;;;;;;5036362;28;20064;-59
2021/07/09 05:29:36;;;;;;;86.57;78.80;;;11.90;99.90;;;;;;5036393;28;20025;-58
2021/07/09 05:32:04;;;;;;;78.85;71.97;;;11.90;99.90;;;;;;5036319;28;20051;-59
2021/07/09 05:34:32;;;;;;;79.60;72.97;;;11.90;99.90;;;;;;5036306;28;20024;-59
2021/07/09 05:36:59;;;;;;;80.63;73.40;;;11.90;99.90;;;;;;5036496;28;20158;-59
2021/07/09 05:39:26;;;;;;;79.22;72.72;;;11.90;99.90;;;;;;5036268;28;20018;-59
2021/07/09 05:41:54;;;;;;;82.38;75.63;;;11.80;99.90;;;;;;5036353;28;20378;-59
2021/07/09 05:44:21;;;;;;;80.57;73.95;;;11.80;99.90;;;;;;5036030;28;20028;-58
2021/07/09 05:46:48;;;;;;;89.40;81.75;;;11.80;99.90;;;;;;5036140;28;20026;-58
2021/07/09 05:49:16;;;;;;;87.03;79.60;;;11.80;99.90;;;;;;5035945;28;20018;-59
2021/07/09 05:51:43;;;;;;;79.90;72.78;;;11.70;99.90;;;;;;5036309;28;20075;-58
2021/07/09 05:54:11;;;;;;;86.45;78.95;;;11.70;99.90;;;;;;5036142;28;20021;-59
2021/07/09 05:56:38;;;;;;;94.45;86.65;;;11.70;99.90;;;;;;5035779;28;20100;-59
2021/07/09 05:59:05;;;;;;;87.45;79.85;;;11.70;99.90;;;;;;5036182;28;20056;-60
2021/07/09 06:01:33;;;;;;;95.93;87.55;;;11.70;99.90;;;;;;5035926;28;20033;-59
2021/07/09 06:04:00;;;;;;;94.63;86.63;;;11.70;99.90;;;;;;5035963;28;20363;-60
2021/07/09 06:06:27;;;;;;;92.20;84.00;;;11.60;99.90;;;;;;5035835;28;20061;-57
2021/07/09 06:08:55;;;;;;;95.13;86.93;;;11.60;99.90;;;;;;5035884;28;20029;-59
2021/07/09 06:11:25;;;;;;;93.03;84.72;;;11.60;99.90;;;;;;5035648;28;20082;-59
2021/07/09 06:13:53;;;;;;;98.30;89.53;;;11.60;99.90;;;;;;5035700;28;20478;-58
2021/07/09 06:16:21;;;;;;;97.55;89.40;;;11.50;99.90;;;;;;5035621;28;20017;-58
2021/07/09 06:18:49;;;;;;;94.18;86.13;;;11.50;99.90;;;;;;5034489;28;20029;-60
2021/07/09 06:21:16;;;;;;;97.45;89.20;;;11.50;99.90;;;;;;5035474;28;20079;-61
2021/07/09 06:23:44;;;;;;;93.75;85.50;;;11.50;99.90;;;;;;5035285;28;20025;-59
2021/07/09 06:26:11;;;;;;;90.97;83.07;;;11.60;99.90;;;;;;5035477;28;20526;-59
2021/07/09 06:28:39;;;;;;;85.43;77.43;;;11.60;99.90;;;;;;5035463;28;20031;-60
2021/07/09 06:31:06;;;;;;;87.10;79.05;;;11.60;99.90;;;;;;5035599;28;20028;-60
2021/07/09 06:33:33;;;;;;;84.70;76.90;;;11.60;99.90;;;;;;5035134;28;20455;-60
2021/07/09 06:36:01;;;;;;;89.63;81.85;;;11.60;99.90;;;;;;5035243;28;20144;-59
2021/07/09 06:38:28;;;;;;;90.55;82.50;;;11.60;99.90;;;;;;5035092;28;20025;-59
2021/07/09 06:40:55;;;;;;;88.90;80.70;;;11.60;99.90;;;;;;5035087;28;20026;-59
2021/07/09 06:43:23;;;;;;;85.15;77.35;;;11.60;99.90;;;;;;5035224;28;20383;-59
2021/07/09 06:45:50;;;;;;;80.93;73.35;;;11.60;99.90;;;;;;5034850;28;20486;-58
2021/07/09 06:48:18;;;;;;;89.20;81.32;;;11.60;99.90;;;;;;5034898;28;20032;-60
2021/07/09 06:50:45;;;;;;;85.22;77.05;;;11.60;99.90;;;;;;5033631;28;20042;-59
2021/07/09 06:53:13;;;;;;;87.25;79.45;;;11.60;99.90;;;;;;5033576;28;20029;-59
2021/07/09 06:55:40;;;;;;;83.63;76.00;;;11.60;99.90;;;;;;5034847;28;20021;-55
2021/07/09 06:58:07;;;;;;;81.95;74.53;;;11.60;99.90;;;;;;5034732;28;20060;-57
2021/07/09 07:00:35;;;;;;;82.07;74.53;;;11.60;99.90;;;;;;5034878;28;20023;-57
2021/07/09 07:03:02;;;;;;;81.22;73.95;;;11.60;99.90;;;;;;5034528;28;20079;-54
2021/07/09 07:05:30;;;;;;;77.95;71.05;;;11.60;99.90;;;;;;5034304;28;20041;-56
2021/07/09 07:07:57;;;;;;;76.43;69.53;;;11.60;99.90;;;;;;5033565;28;20059;-55
2021/07/09 07:10:24;;;;;;;78.65;71.68;;;11.60;99.90;;;;;;5033416;28;20147;-55
2021/07/09 07:12:52;;;;;;;76.93;70.13;;;11.60;99.90;;;;;;5033954;28;20040;-54
2021/07/09 07:15:19;;;;;;;71.57;65.07;;;11.70;99.90;;;;;;5032661;28;20021;-56
2021/07/09 07:17:46;;;;;;;72.63;66.13;;;11.70;99.90;;;;;;5032928;28;20040;-55
2021/07/09 07:20:14;;;;;;;70.38;63.92;;;11.70;99.90;;;;;;5034193;28;20068;-54
2021/07/09 07:22:41;;;;;;;68.38;62.28;;;11.70;99.90;;;;;;5034140;28;20048;-56
2021/07/09 07:25:09;;;;;;;69.90;63.70;;;11.70;99.90;;;;;;5034057;28;20486;-54
2021/07/09 07:27:36;;;;;;;65.35;59.78;;;11.60;99.90;;;;;;5034154;28;20083;-57
2021/07/09 07:30:05;;;;;;;61.10;55.90;;;11.60;99.90;;;;;;5033910;28;20025;-54
2021/07/09 07:32:33;;;;;;;62.38;57.28;;;11.60;99.90;;;;;;5033879;28;20025;-55
2021/07/09 07:35:00;;;;;;;63.40;57.85;;;11.60;99.90;;;;;;5034025;28;20104;-53
2021/07/09 07:37:27;;;;;;;59.17;54.00;;;11.60;99.90;;;;;;5033906;28;20025;-56
2021/07/09 07:39:55;;;;;;;56.67;51.80;;;11.60;99.90;;;;;;5033853;28;20105;-53
2021/07/09 07:42:23;;;;;;;59.72;54.50;;;11.60;99.90;;;;;;5032601;28;20033;-56
2021/07/09 07:44:50;;;;;;;58.45;53.50;;;11.60;99.90;;;;;;5033838;28;20033;-51
2021/07/09 07:47:21;;;;;;;57.78;52.78;;;11.50;99.90;;;;;;5033783;28;20026;-54
2021/07/09 07:49:48;;;;;;;;;;;11.70;99.90;;;;;;5034327;28;20112;-55
2021/07/09 07:52:15;;;;;;;56.05;51.10;;;11.50;99.90;;;;;;5033629;28;19909;-54
2021/07/09 07:54:43;;;;;;;56.05;51.00;;;11.50;99.90;;;;;;5032203;28;20048;-55
2021/07/09 07:57:10;;;;;;;56.28;51.25;;;11.50;99.90;;;;;;5033609;28;20474;-56
2021/07/09 07:59:37;;;;;;;57.10;52.30;;;11.40;99.90;;;;;;5033655;28;20021;-56
2021/07/09 08:02:05;;;;;;;56.08;51.08;;;11.40;99.90;;;;;;5033579;28;20029;-54
2021/07/09 08:04:32;;;;;;;57.00;52.20;;;11.40;99.90;;;;;;5033386;28;20038;-54
2021/07/09 08:06:59;;;;;;;53.65;48.85;;;11.40;99.90;;;;;;5033396;28;20029;-59
2021/07/09 08:09:27;;;;;;;57.15;52.42;;;11.40;99.90;;;;;;5033377;28;20021;-55
2021/07/09 08:11:54;;;;;;;53.58;48.78;;;11.40;99.90;;;;;;5033196;28;20022;-54
2021/07/09 08:14:21;;;;;;;55.10;50.28;;;11.40;99.90;;;;;;5033343;28;20089;-55
2021/07/09 08:16:51;;;;;;;56.85;51.95;;;11.40;99.90;;;;;;5033323;28;20041;-56
2021/07/09 08:19:20;;;;;;;55.97;51.47;;;11.40;99.90;;;;;;5033318;28;20064;-55
2021/07/09 08:21:48;;;;;;;55.38;50.70;;;11.30;99.90;;;;;;5033368;28;20028;-56
2021/07/09 08:24:16;;;;;;;57.88;52.67;;;11.30;99.90;;;;;;5033288;28;20467;-59
2021/07/09 08:26:44;;;;;;;60.58;55.17;;;11.30;99.90;;;;;;5033247;28;20025;-56
2021/07/09 08:29:11;;;;;;;59.22;54.15;;;11.30;99.90;;;;;;5033007;28;20022;-56
2021/07/09 08:31:39;;;;;;;60.60;55.38;;;11.30;99.90;;;;;;5033193;28;20029;-56
2021/07/09 08:34:06;;;;;;;64.43;59.15;;;11.30;99.90;;;;;;5032940;28;20025;-56
2021/07/09 08:36:34;;;;;;;62.22;57.17;;;11.30;99.90;;;;;;5033004;28;20044;-55
2021/07/09 08:39:01;;;;;;;61.08;56.17;;;11.30;99.90;;;;;;5033035;28;20021;-58
2021/07/09 08:41:29;;;;;;;58.70;53.72;;;11.20;99.90;;;;;;5033113;28;20067;-57
2021/07/09 08:43:56;;;;;;;57.08;51.95;;;11.20;99.90;;;;;;5031951;28;20079;-57
2021/07/09 08:46:26;;;;;;;54.95;50.15;;;11.20;99.90;;;;;;5033235;28;20156;-56
2021/07/09 08:48:54;;;;;;;58.63;53.58;;;11.20;99.90;;;;;;5033274;28;20026;-56
2021/07/09 08:51:22;;;;;;;59.25;54.33;;;11.20;99.90;;;;;;5033093;28;20029;-56
2021/07/09 08:53:49;;;;;;;57.83;53.13;;;11.20;99.90;;;;;;5032946;28;20032;-57
2021/07/09 08:56:17;;;;;;;59.95;54.80;;;11.20;99.90;;;;;;5032872;28;20022;-57
2021/07/09 08:58:46;;;;;;;58.67;53.95;;;11.20;99.90;;;;;;5032879;28;20026;-56
2021/07/09 09:01:14;;;;;;;59.42;54.53;;;11.20;99.90;;;;;;5032858;28;20021;-57
2021/07/09 09:03:41;;;;;;;59.05;54.25;;;11.20;99.90;;;;;;5032787;28;20474;-58
2021/07/09 09:06:17;;;;;;;59.33;54.63;;;11.10;99.90;;;;;;5032509;28;20094;-58
2021/07/09 09:08:44;;;;;;;59.95;55.25;;;11.10;99.90;;;;;;5031345;28;20079;-57
2021/07/09 09:11:12;;;;;;;61.15;56.15;;;11.10;99.90;;;;;;5033237;28;20087;-57
2021/07/09 09:13:39;;;;;;;61.13;56.42;;;11.10;99.90;;;;;;5032648;28;20486;-53
2021/07/09 09:16:12;;;;;;;59.95;55.38;;;11.00;99.90;;;;;;5032564;28;20021;-58
2021/07/09 09:18:45;;;;;;;61.03;56.35;;;11.00;99.90;;;;;;5032749;28;20025;-58
2021/07/09 09:21:18;;;;;;;58.53;53.72;;;11.00;99.90;;;;;;5031323;28;20049;-58
2021/07/09 09:23:53;;;;;;;59.80;54.90;;;11.00;99.90;;;;;;5031462;28;20075;-55
2021/07/09 09:26:53;;;;;;;61.13;56.17;;;11.00;99.90;;;;;;5032646;28;20032;-58
2021/07/09 09:29:26;;;;;;;56.67;52.07;;;11.00;99.90;;;;;;5032893;28;20371;-57
2021/07/09 09:32:00;;;;;;;58.15;53.55;;;10.90;99.90;;;;;;5035932;28;20159;-55
2021/07/09 09:34:45;;;;;;;57.28;52.45;;;10.90;99.90;;;;;;5036281;28;20033;-55
2021/07/09 09:37:18;;;;;;;60.67;55.95;;;10.90;99.90;;;;;;5034978;28;20113;-55
2021/07/09 09:39:49;;;;;;;60.20;55.20;;;10.90;99.90;;;;;;5036151;28;20026;-55
2021/07/09 09:42:25;;;;;;;61.33;56.50;;;10.80;99.90;;;;;;5036006;28;20032;-58
2021/07/09 09:45:05;;;;;;;60.50;55.70;;;10.90;99.90;;;;;;5036217;28;20101;-55
2021/07/09 09:47:35;;;;;;;61.15;55.97;;;10.80;99.90;;;;;;5034763;28;20026;-58
2021/07/09 09:50:06;;;;;;;61.75;56.90;;;10.80;99.90;;;;;;5035956;28;20029;-59
2021/07/09 09:52:46;;;;;;;59.67;54.97;;;10.80;99.90;;;;;;5036092;28;20033;-57
2021/07/09 09:55:21;;;;;;;61.90;56.90;;;10.80;99.90;;;;;;5035965;28;20506;-60
2021/07/09 09:58:07;;;;;;;61.97;56.97;;;10.70;99.90;;;;;;5035718;28;20025;-62
2021/07/09 10:00:34;;;;;;;59.60;54.90;;;10.80;99.90;;;;;;5035797;28;20033;-56
2021/07/09 10:03:04;;;;;;;57.78;53.08;;;10.80;99.90;;;;;;5035625;28;20447;-59
2021/07/09 10:05:41;;;;;;;61.27;56.63;;;10.80;99.90;;;;;;5035696;28;20060;-58
2021/07/09 10:08:14;;;;;;;62.25;57.47;;;10.70;99.90;;;;;;5035578;28;20822;-59
2021/07/09 10:10:43;;;;;;;63.72;58.97;;;10.80;99.90;;;;;;5035620;28;20482;-57
2021/07/09 10:13:14;;;;;;;63.22;58.28;;;10.70;99.90;;;;;;5035495;28;20048;-57
2021/07/09 10:15:48;;;;;;;63.38;58.38;;;10.70;99.90;;;;;;5036015;28;20014;-57
2021/07/09 10:18:17;;;;;;;64.72;59.72;;;10.70;99.90;;;;;;5035533;28;20113;-56
2021/07/09 10:20:46;;;;;;;63.17;58.17;;;10.80;99.90;;;;;;5034071;28;20036;-56
2021/07/09 10:23:19;;;;;;;62.85;58.00;;;10.70;99.90;;;;;;5035340;28;20022;-57
2021/07/09 10:25:48;;;;;;;61.65;56.80;;;10.70;99.90;;;;;;5035400;28;20083;-58
2021/07/09 10:28:22;;;;;;;63.22;58.33;;;10.70;99.90;;;;;;5035366;28;20029;-60
2021/07/09 10:30:53;;;;;;;62.17;57.40;;;10.70;99.90;;;;;;5034174;28;20081;-61
2021/07/09 10:33:28;;;;;;;;;;;10.70;99.90;;;;;;5035826;28;20021;-61
2021/07/09 10:35:56;;;;;;;60.55;55.95;;;10.70;99.90;;;;;;5035147;28;20018;-59
2021/07/09 10:38:24;;;;;;;63.13;58.28;;;10.70;99.90;;;;;;5035389;28;20022;-58
2021/07/09 10:40:52;;;;;;;65.15;60.33;;;10.70;99.90;;;;;;5034801;28;20052;-57
2021/07/09 10:43:21;;;;;;;63.25;58.45;;;10.70;99.90;;;;;;5034223;28;20025;-58
2021/07/09 10:45:48;;;;;;;62.78;57.97;;;10.70;99.90;;;;;;5034983;28;20053;-58
2021/07/09 10:48:17;;;;;;;61.72;57.03;;;10.70;99.90;;;;;;5034866;28;20076;-58
2021/07/09 10:50:52;;;;;;;62.42;57.80;;;10.70;99.90;;;;;;5034912;28;20075;-57
2021/07/09 10:53:29;;;;;;;64.25;59.47;;;10.70;99.90;;;;;;5034995;28;20025;-58
2021/07/09 10:56:08;;;;;;;65.82;60.83;;;10.70;99.90;;;;;;5034630;28;20060;-57
2021/07/09 10:59:00;;;;;;;60.70;55.88;;;10.70;99.90;;;;;;5034686;28;20108;-56
2021/07/09 11:01:36;;;;;;;64.93;59.95;;;10.70;99.90;;;;;;5034427;28;20108;-58
2021/07/09 11:04:14;;;;;;;62.92;58.13;;;10.70;99.90;;;;;;5034562;28;20533;-59
2021/07/09 11:06:43;;;;;;;67.00;61.90;;;10.70;99.90;;;;;;5034523;28;20030;-59
2021/07/09 11:09:14;;;;;;;67.25;62.15;;;10.80;99.90;;;;;;5034532;28;20112;-57
2021/07/09 11:11:44;;;;;;;66.43;61.22;;;10.80;99.90;;;;;;5034485;28;20439;-58
2021/07/09 11:14:14;;;;;;;68.45;63.35;;;10.80;99.90;;;;;;5034491;28;20517;-58
2021/07/09 11:16:46;;;;;;;68.53;63.22;;;10.80;99.90;;;;;;5034311;28;20056;-58
2021/07/09 11:19:22;;;;;;;65.97;60.78;;;10.80;99.90;;;;;;5033136;28;20041;-58
2021/07/09 11:21:55;;;;;;;64.95;59.92;;;10.80;99.90;;;;;;5034318;28;20096;-56
2021/07/09 11:24:25;;;;;;;68.90;63.65;;;10.80;99.90;;;;;;5034026;28;20017;-58
2021/07/09 11:26:54;;;;;;;71.15;65.85;;;10.80;99.90;;;;;;5034218;28;20057;-59
2021/07/09 11:29:37;;;;;;;70.03;64.53;;;10.90;99.90;;;;;;5034075;28;20105;-57
2021/07/09 11:32:19;;;;;;;69.90;64.50;;;10.90;99.90;;;;;;5033814;28;20076;-58
2021/07/09 11:34:55;;;;;;;68.75;63.35;;;10.90;99.90;;;;;;5034275;28;20029;-58
2021/07/09 11:37:34;;;;;;;68.13;62.88;;;10.90;99.90;;;;;;5034093;28;20029;-59
2021/07/09 11:40:11;;;;;;;67.78;62.50;;;10.90;99.90;;;;;;5033898;28;20017;-59
2021/07/09 11:42:40;;;;;;;67.18;62.05;;;10.90;99.90;;;;;;5034202;28;20032;-59
2021/07/09 11:45:15;;;;;;;69.22;63.63;;;11.00;99.90;;;;;;5033865;28;20030;-59
2021/07/09 11:47:44;;;;;;;67.65;62.35;;;11.00;99.90;;;;;;5033959;28;20033;-58
2021/07/09 11:50:16;;;;;;;67.38;61.97;;;11.00;99.90;;;;;;5033732;28;20045;-60
2021/07/09 11:52:52;;;;;;;69.00;63.78;;;11.00;99.90;;;;;;5033564;28;20029;-58
2021/07/09 11:55:30;;;;;;;66.75;61.70;;;10.90;99.90;;;;;;5033855;28;20478;-58
2021/07/09 11:58:05;;;;;;;65.10;60.30;;;11.00;99.90;;;;;;5034048;28;20083;-55
2021/07/09 12:00:33;;;;;;;68.75;63.75;;;11.00;99.90;;;;;;5033723;28;20029;-57
2021/07/09 12:03:00;;;;;;;65.47;60.55;;;11.00;99.90;;;;;;5033392;28;20084;-56
2021/07/09 12:05:32;;;;;;;63.35;58.85;;;11.00;99.90;;;;;;5033609;28;20045;-56
2021/07/09 12:07:59;;;;;;;62.97;58.35;;;11.00;99.90;;;;;;5032468;28;20486;-56
2021/07/09 12:10:29;;;;;;;63.78;58.70;;;11.00;99.90;;;;;;5033493;28;20064;-57
2021/07/09 12:12:58;;;;;;;64.65;60.13;;;11.00;99.90;;;;;;5033287;28;20065;-58
2021/07/09 12:15:28;;;;;;;62.03;57.20;;;11.00;99.90;;;;;;5033408;28;20423;-57
2021/07/09 12:17:56;;;;;;;;;;;11.00;99.90;;;;;;5033742;28;20045;-58
2021/07/09 12:20:27;;;;;;;66.57;61.97;;;10.90;99.90;;;;;;5033854;28;20000;-58
2021/07/09 12:23:08;;;;;;;65.85;61.10;;;11.00;99.90;;;;;;5033369;28;20021;-58
2021/07/09 12:26:05;;;;;;;68.53;63.78;;;11.00;99.90;;;;;;5032062;28;20029;-58
2021/07/09 12:28:35;;;;;;;67.30;62.60;;;11.00;99.90;;;;;;5032941;28;20092;-58
2021/07/09 12:31:05;;;;;;;69.75;64.78;;;11.00;99.90;;;;;;5033349;28;20029;-58
2021/07/09 12:33:38;;;;;;;67.97;63.13;;;11.00;99.90;;;;;;5033045;28;20029;-58
2021/07/09 12:36:10;;;;;;;73.32;68.15;;;11.00;99.90;;;;;;5033014;28;20363;-58
2021/07/09 12:38:40;;;;;;;71.75;66.70;;;11.00;99.90;;;;;;5033285;28;20024;-58